Hovedside
METAR-TAF:

METAR-TAF

Lufthavner :

Wittering, England

breddegrad: 52-37N, lengdegrad: 000-28W, høyde over havet: 84 m

Gjeldene værobservasjon

Denne rapporten ble laget for 42 minutter siden, klokken 18:50 UTC
Vind 9 kt fra Sør-sørvest
Temperatur 7°C
Luftfuktighet 100%
Trykk 974 hPa
Sikt 10 km eller mer

METAR: EGXT 121850Z AUTO 21009KT 9999 BKN004/// 07/07 Q0974 RERA

Tid: 19:32 (19:32 UTC)


TAF: fraværende

Værobservasjoner og værvarsel for over 4000 flyplasser (METAR- og TAF-rapporter).

Tilgjengelige stasjoner er representert av de røde og gule prikkene på kartet.

Hold musepekeren over prikken for å se navnet på stasjonen.

Klikk så for å se værobservasjoner og -varsler.

For å forandre kartet kan du klikke på den grønne knappen med svart kryss for å zoome inn, på den grønne knappen med strek for å zoome ut, eller på de grønne pilene for å se tilstøtende kart.


METAR-TAF: